sensor_id;sensor_type;location;lat;lon;timestamp;P1;durP1;ratioP1;P2;durP2;ratioP2
14056;SDS011;7103;54.300;10.180;2024-02-21T00:01:37;0.10;;;0.10;;
14056;SDS011;7103;54.300;10.180;2024-02-21T00:04:04;0.10;;;0.10;;
14056;SDS011;7103;54.300;10.180;2024-02-21T00:06:34;0.10;;;0.10;;
14056;SDS011;7103;54.300;10.180;2024-02-21T00:09:01;0.10;;;0.10;;
14056;SDS011;7103;54.300;10.180;2024-02-21T00:11:29;0.10;;;0.10;;
14056;SDS011;7103;54.300;10.180;2024-02-21T00:13:59;0.10;;;0.10;;
14056;SDS011;7103;54.300;10.180;2024-02-21T00:16:26;0.10;;;0.10;;
14056;SDS011;7103;54.300;10.180;2024-02-21T00:18:53;0.10;;;0.10;;
14056;SDS011;7103;54.300;10.180;2024-02-21T00:21:22;0.10;;;0.10;;
14056;SDS011;7103;54.300;10.180;2024-02-21T00:23:49;0.10;;;0.10;;
14056;SDS011;7103;54.300;10.180;2024-02-21T00:26:17;0.10;;;0.10;;
14056;SDS011;7103;54.300;10.180;2024-02-21T00:28:44;0.10;;;0.10;;
14056;SDS011;7103;54.300;10.180;2024-02-21T00:31:11;0.10;;;0.10;;
14056;SDS011;7103;54.300;10.180;2024-02-21T00:33:38;0.10;;;0.10;;
14056;SDS011;7103;54.300;10.180;2024-02-21T00:36:05;0.10;;;0.10;;
14056;SDS011;7103;54.300;10.180;2024-02-21T00:38:32;0.10;;;0.10;;
14056;SDS011;7103;54.300;10.180;2024-02-21T00:40:59;0.10;;;0.10;;
14056;SDS011;7103;54.300;10.180;2024-02-21T00:43:26;0.20;;;0.20;;
14056;SDS011;7103;54.300;10.180;2024-02-21T00:45:53;0.20;;;0.20;;
14056;SDS011;7103;54.300;10.180;2024-02-21T00:48:20;0.10;;;0.10;;
14056;SDS011;7103;54.300;10.180;2024-02-21T00:50:47;0.10;;;0.10;;
14056;SDS011;7103;54.300;10.180;2024-02-21T00:53:13;0.20;;;0.20;;
14056;SDS011;7103;54.300;10.180;2024-02-21T00:55:40;0.10;;;0.10;;
14056;SDS011;7103;54.300;10.180;2024-02-21T00:58:09;0.10;;;0.10;;
14056;SDS011;7103;54.300;10.180;2024-02-21T01:00:36;0.10;;;0.10;;
14056;SDS011;7103;54.300;10.180;2024-02-21T01:03:03;0.10;;;0.10;;
14056;SDS011;7103;54.300;10.180;2024-02-21T01:05:30;0.10;;;0.10;;
14056;SDS011;7103;54.300;10.180;2024-02-21T01:07:56;0.10;;;0.10;;
14056;SDS011;7103;54.300;10.180;2024-02-21T01:10:23;0.10;;;0.10;;
14056;SDS011;7103;54.300;10.180;2024-02-21T01:12:50;0.20;;;0.20;;
14056;SDS011;7103;54.300;10.180;2024-02-21T01:15:17;0.20;;;0.20;;
14056;SDS011;7103;54.300;10.180;2024-02-21T01:17:44;0.10;;;0.10;;
14056;SDS011;7103;54.300;10.180;2024-02-21T01:20:11;0.10;;;0.10;;
14056;SDS011;7103;54.300;10.180;2024-02-21T01:22:38;0.10;;;0.10;;
14056;SDS011;7103;54.300;10.180;2024-02-21T01:25:05;0.20;;;0.20;;
14056;SDS011;7103;54.300;10.180;2024-02-21T01:27:33;0.10;;;0.10;;
14056;SDS011;7103;54.300;10.180;2024-02-21T01:30:00;0.10;;;0.10;;
14056;SDS011;7103;54.300;10.180;2024-02-21T01:32:26;0.10;;;0.10;;
14056;SDS011;7103;54.300;10.180;2024-02-21T01:34:53;0.10;;;0.10;;
14056;SDS011;7103;54.300;10.180;2024-02-21T01:37:20;0.10;;;0.10;;
14056;SDS011;7103;54.300;10.180;2024-02-21T01:39:48;0.10;;;0.10;;
14056;SDS011;7103;54.300;10.180;2024-02-21T01:42:15;0.10;;;0.10;;
14056;SDS011;7103;54.300;10.180;2024-02-21T01:44:42;0.10;;;0.10;;
14056;SDS011;7103;54.300;10.180;2024-02-21T01:47:10;0.10;;;0.10;;
14056;SDS011;7103;54.300;10.180;2024-02-21T01:49:42;0.10;;;0.10;;
14056;SDS011;7103;54.300;10.180;2024-02-21T01:52:09;0.10;;;0.10;;
14056;SDS011;7103;54.300;10.180;2024-02-21T01:54:40;0.10;;;0.10;;
14056;SDS011;7103;54.300;10.180;2024-02-21T01:57:07;0.10;;;0.10;;
14056;SDS011;7103;54.300;10.180;2024-02-21T01:59:34;0.10;;;0.10;;
14056;SDS011;7103;54.300;10.180;2024-02-21T02:02:02;0.10;;;0.10;;
14056;SDS011;7103;54.300;10.180;2024-02-21T02:04:29;0.10;;;0.10;;
14056;SDS011;7103;54.300;10.180;2024-02-21T02:06:56;0.10;;;0.10;;
14056;SDS011;7103;54.300;10.180;2024-02-21T02:09:29;0.10;;;0.10;;
14056;SDS011;7103;54.300;10.180;2024-02-21T02:11:56;0.10;;;0.10;;
14056;SDS011;7103;54.300;10.180;2024-02-21T02:14:25;0.10;;;0.10;;
14056;SDS011;7103;54.300;10.180;2024-02-21T02:16:52;0.10;;;0.10;;
14056;SDS011;7103;54.300;10.180;2024-02-21T02:19:19;0.10;;;0.10;;
14056;SDS011;7103;54.300;10.180;2024-02-21T02:21:49;0.10;;;0.10;;
14056;SDS011;7103;54.300;10.180;2024-02-21T02:24:23;0.10;;;0.10;;
14056;SDS011;7103;54.300;10.180;2024-02-21T02:26:52;0.07;;;0.07;;
14056;SDS011;7103;54.300;10.180;2024-02-21T02:29:19;0.10;;;0.10;;
14056;SDS011;7103;54.300;10.180;2024-02-21T02:31:46;0.10;;;0.10;;
14056;SDS011;7103;54.300;10.180;2024-02-21T02:34:13;0.10;;;0.10;;
14056;SDS011;7103;54.300;10.180;2024-02-21T02:36:40;0.10;;;0.10;;
14056;SDS011;7103;54.300;10.180;2024-02-21T02:39:07;0.10;;;0.10;;
14056;SDS011;7103;54.300;10.180;2024-02-21T02:41:35;0.10;;;0.10;;
14056;SDS011;7103;54.300;10.180;2024-02-21T02:44:02;0.10;;;0.10;;
14056;SDS011;7103;54.300;10.180;2024-02-21T02:46:29;0.10;;;0.10;;
14056;SDS011;7103;54.300;10.180;2024-02-21T02:48:56;0.03;;;0.03;;
14056;SDS011;7103;54.300;10.180;2024-02-21T02:51:23;0.00;;;0.00;;
14056;SDS011;7103;54.300;10.180;2024-02-21T02:53:50;0.10;;;0.10;;
14056;SDS011;7103;54.300;10.180;2024-02-21T02:56:17;0.10;;;0.10;;
14056;SDS011;7103;54.300;10.180;2024-02-21T02:58:44;0.10;;;0.10;;
14056;SDS011;7103;54.300;10.180;2024-02-21T03:01:11;0.10;;;0.10;;
14056;SDS011;7103;54.300;10.180;2024-02-21T03:03:38;0.10;;;0.10;;
14056;SDS011;7103;54.300;10.180;2024-02-21T03:06:05;0.10;;;0.10;;
14056;SDS011;7103;54.300;10.180;2024-02-21T03:08:33;0.10;;;0.10;;
14056;SDS011;7103;54.300;10.180;2024-02-21T03:11:00;0.10;;;0.10;;
14056;SDS011;7103;54.300;10.180;2024-02-21T03:13:27;0.10;;;0.10;;
14056;SDS011;7103;54.300;10.180;2024-02-21T03:15:54;0.00;;;0.00;;
14056;SDS011;7103;54.300;10.180;2024-02-21T03:18:21;0.10;;;0.10;;
14056;SDS011;7103;54.300;10.180;2024-02-21T03:20:48;0.00;;;0.00;;
14056;SDS011;7103;54.300;10.180;2024-02-21T03:23:15;0.07;;;0.07;;
14056;SDS011;7103;54.300;10.180;2024-02-21T03:25:42;0.10;;;0.10;;
14056;SDS011;7103;54.300;10.180;2024-02-21T03:28:09;0.00;;;0.00;;
14056;SDS011;7103;54.300;10.180;2024-02-21T03:30:36;0.00;;;0.00;;
14056;SDS011;7103;54.300;10.180;2024-02-21T03:33:03;0.00;;;0.00;;
14056;SDS011;7103;54.300;10.180;2024-02-21T03:35:31;0.00;;;0.00;;
14056;SDS011;7103;54.300;10.180;2024-02-21T03:37:58;0.03;;;0.03;;
14056;SDS011;7103;54.300;10.180;2024-02-21T03:40:25;0.00;;;0.00;;
14056;SDS011;7103;54.300;10.180;2024-02-21T03:42:52;0.10;;;0.10;;
14056;SDS011;7103;54.300;10.180;2024-02-21T03:45:19;0.10;;;0.10;;
14056;SDS011;7103;54.300;10.180;2024-02-21T03:47:46;0.10;;;0.10;;
14056;SDS011;7103;54.300;10.180;2024-02-21T03:50:13;0.00;;;0.00;;
14056;SDS011;7103;54.300;10.180;2024-02-21T03:52:40;0.10;;;0.10;;
14056;SDS011;7103;54.300;10.180;2024-02-21T03:55:07;0.10;;;0.10;;
14056;SDS011;7103;54.300;10.180;2024-02-21T03:57:35;0.10;;;0.10;;
14056;SDS011;7103;54.300;10.180;2024-02-21T04:00:02;0.10;;;0.10;;
14056;SDS011;7103;54.300;10.180;2024-02-21T04:02:30;0.07;;;0.07;;
14056;SDS011;7103;54.300;10.180;2024-02-21T04:04:57;0.10;;;0.10;;
14056;SDS011;7103;54.300;10.180;2024-02-21T04:07:24;0.10;;;0.10;;
14056;SDS011;7103;54.300;10.180;2024-02-21T04:09:51;0.10;;;0.10;;
14056;SDS011;7103;54.300;10.180;2024-02-21T04:12:18;0.10;;;0.10;;
14056;SDS011;7103;54.300;10.180;2024-02-21T04:14:46;0.10;;;0.10;;
14056;SDS011;7103;54.300;10.180;2024-02-21T04:17:13;0.10;;;0.10;;
14056;SDS011;7103;54.300;10.180;2024-02-21T04:19:40;0.10;;;0.10;;
14056;SDS011;7103;54.300;10.180;2024-02-21T04:22:07;0.10;;;0.10;;
14056;SDS011;7103;54.300;10.180;2024-02-21T04:24:34;0.10;;;0.10;;
14056;SDS011;7103;54.300;10.180;2024-02-21T04:27:01;0.10;;;0.10;;
14056;SDS011;7103;54.300;10.180;2024-02-21T04:29:28;0.10;;;0.10;;
14056;SDS011;7103;54.300;10.180;2024-02-21T04:31:55;0.10;;;0.10;;
14056;SDS011;7103;54.300;10.180;2024-02-21T04:34:25;0.10;;;0.10;;
14056;SDS011;7103;54.300;10.180;2024-02-21T04:36:53;0.10;;;0.10;;
14056;SDS011;7103;54.300;10.180;2024-02-21T04:39:19;0.10;;;0.10;;
14056;SDS011;7103;54.300;10.180;2024-02-21T04:41:46;0.10;;;0.10;;
14056;SDS011;7103;54.300;10.180;2024-02-21T04:44:13;0.10;;;0.10;;
14056;SDS011;7103;54.300;10.180;2024-02-21T04:46:42;0.10;;;0.10;;
14056;SDS011;7103;54.300;10.180;2024-02-21T04:49:09;0.10;;;0.10;;
14056;SDS011;7103;54.300;10.180;2024-02-21T04:51:36;0.10;;;0.10;;
14056;SDS011;7103;54.300;10.180;2024-02-21T04:54:04;0.10;;;0.10;;
14056;SDS011;7103;54.300;10.180;2024-02-21T04:56:30;0.10;;;0.10;;
14056;SDS011;7103;54.300;10.180;2024-02-21T04:58:57;0.10;;;0.10;;
14056;SDS011;7103;54.300;10.180;2024-02-21T05:01:25;0.20;;;0.20;;
14056;SDS011;7103;54.300;10.180;2024-02-21T05:03:52;0.13;;;0.13;;
14056;SDS011;7103;54.300;10.180;2024-02-21T05:06:19;0.10;;;0.10;;
14056;SDS011;7103;54.300;10.180;2024-02-21T05:08:46;0.20;;;0.20;;
14056;SDS011;7103;54.300;10.180;2024-02-21T05:11:13;0.20;;;0.20;;
14056;SDS011;7103;54.300;10.180;2024-02-21T05:13:41;0.20;;;0.20;;
14056;SDS011;7103;54.300;10.180;2024-02-21T05:16:08;0.10;;;0.10;;
14056;SDS011;7103;54.300;10.180;2024-02-21T05:18:34;0.10;;;0.10;;
14056;SDS011;7103;54.300;10.180;2024-02-21T05:21:02;0.10;;;0.10;;
14056;SDS011;7103;54.300;10.180;2024-02-21T05:23:28;0.10;;;0.10;;
14056;SDS011;7103;54.300;10.180;2024-02-21T05:25:55;0.10;;;0.10;;
14056;SDS011;7103;54.300;10.180;2024-02-21T05:28:22;0.20;;;0.20;;
14056;SDS011;7103;54.300;10.180;2024-02-21T05:30:49;0.10;;;0.10;;
14056;SDS011;7103;54.300;10.180;2024-02-21T05:33:16;0.10;;;0.10;;
14056;SDS011;7103;54.300;10.180;2024-02-21T05:35:48;0.10;;;0.10;;
14056;SDS011;7103;54.300;10.180;2024-02-21T05:38:15;0.20;;;0.20;;
14056;SDS011;7103;54.300;10.180;2024-02-21T05:40:42;0.10;;;0.10;;
14056;SDS011;7103;54.300;10.180;2024-02-21T05:43:11;0.10;;;0.10;;
14056;SDS011;7103;54.300;10.180;2024-02-21T05:45:38;0.13;;;0.13;;
14056;SDS011;7103;54.300;10.180;2024-02-21T05:48:05;0.20;;;0.20;;
14056;SDS011;7103;54.300;10.180;2024-02-21T05:50:32;0.20;;;0.20;;
14056;SDS011;7103;54.300;10.180;2024-02-21T05:52:59;0.10;;;0.10;;
14056;SDS011;7103;54.300;10.180;2024-02-21T05:55:26;0.20;;;0.20;;
14056;SDS011;7103;54.300;10.180;2024-02-21T05:57:54;0.10;;;0.10;;
14056;SDS011;7103;54.300;10.180;2024-02-21T06:00:22;0.20;;;0.20;;
14056;SDS011;7103;54.300;10.180;2024-02-21T06:02:49;0.17;;;0.17;;
14056;SDS011;7103;54.300;10.180;2024-02-21T06:05:16;0.10;;;0.10;;
14056;SDS011;7103;54.300;10.180;2024-02-21T06:07:43;0.10;;;0.10;;
14056;SDS011;7103;54.300;10.180;2024-02-21T06:10:10;0.20;;;0.20;;
14056;SDS011;7103;54.300;10.180;2024-02-21T06:12:38;0.10;;;0.10;;
14056;SDS011;7103;54.300;10.180;2024-02-21T06:15:05;0.10;;;0.10;;
14056;SDS011;7103;54.300;10.180;2024-02-21T06:17:32;0.20;;;0.20;;
14056;SDS011;7103;54.300;10.180;2024-02-21T06:20:00;0.20;;;0.20;;
14056;SDS011;7103;54.300;10.180;2024-02-21T06:22:27;0.20;;;0.20;;
14056;SDS011;7103;54.300;10.180;2024-02-21T06:24:54;0.20;;;0.20;;
14056;SDS011;7103;54.300;10.180;2024-02-21T06:27:21;0.10;;;0.10;;
14056;SDS011;7103;54.300;10.180;2024-02-21T06:29:48;0.10;;;0.10;;
14056;SDS011;7103;54.300;10.180;2024-02-21T06:32:15;0.20;;;0.20;;
14056;SDS011;7103;54.300;10.180;2024-02-21T06:34:41;0.20;;;0.20;;
14056;SDS011;7103;54.300;10.180;2024-02-21T06:37:09;0.20;;;0.20;;
14056;SDS011;7103;54.300;10.180;2024-02-21T06:39:36;0.20;;;0.20;;
14056;SDS011;7103;54.300;10.180;2024-02-21T06:42:04;0.20;;;0.20;;
14056;SDS011;7103;54.300;10.180;2024-02-21T06:44:31;0.20;;;0.20;;
14056;SDS011;7103;54.300;10.180;2024-02-21T06:47:03;0.10;;;0.10;;
14056;SDS011;7103;54.300;10.180;2024-02-21T06:49:30;0.20;;;0.20;;
14056;SDS011;7103;54.300;10.180;2024-02-21T06:51:57;0.20;;;0.20;;
14056;SDS011;7103;54.300;10.180;2024-02-21T06:54:24;0.20;;;0.20;;
14056;SDS011;7103;54.300;10.180;2024-02-21T06:56:51;0.20;;;0.20;;
14056;SDS011;7103;54.300;10.180;2024-02-21T06:59:18;0.20;;;0.20;;
14056;SDS011;7103;54.300;10.180;2024-02-21T07:01:46;0.20;;;0.20;;
14056;SDS011;7103;54.300;10.180;2024-02-21T07:04:16;0.10;;;0.10;;
14056;SDS011;7103;54.300;10.180;2024-02-21T07:06:43;0.20;;;0.20;;
14056;SDS011;7103;54.300;10.180;2024-02-21T07:09:10;0.20;;;0.20;;
14056;SDS011;7103;54.300;10.180;2024-02-21T07:11:37;0.20;;;0.20;;
14056;SDS011;7103;54.300;10.180;2024-02-21T07:14:06;0.20;;;0.20;;
14056;SDS011;7103;54.300;10.180;2024-02-21T07:16:35;0.30;;;0.30;;
14056;SDS011;7103;54.300;10.180;2024-02-21T07:19:02;0.20;;;0.20;;
14056;SDS011;7103;54.300;10.180;2024-02-21T07:21:29;0.20;;;0.20;;
14056;SDS011;7103;54.300;10.180;2024-02-21T07:23:56;0.20;;;0.20;;
14056;SDS011;7103;54.300;10.180;2024-02-21T07:26:23;0.20;;;0.20;;
14056;SDS011;7103;54.300;10.180;2024-02-21T07:28:50;0.20;;;0.20;;
14056;SDS011;7103;54.300;10.180;2024-02-21T07:31:17;0.30;;;0.30;;
14056;SDS011;7103;54.300;10.180;2024-02-21T07:33:44;0.20;;;0.20;;
14056;SDS011;7103;54.300;10.180;2024-02-21T07:36:11;0.20;;;0.20;;
14056;SDS011;7103;54.300;10.180;2024-02-21T07:38:38;0.20;;;0.20;;
14056;SDS011;7103;54.300;10.180;2024-02-21T07:41:06;0.20;;;0.20;;
14056;SDS011;7103;54.300;10.180;2024-02-21T07:43:34;0.20;;;0.20;;
14056;SDS011;7103;54.300;10.180;2024-02-21T07:46:01;0.20;;;0.20;;
14056;SDS011;7103;54.300;10.180;2024-02-21T07:48:29;0.20;;;0.20;;
14056;SDS011;7103;54.300;10.180;2024-02-21T07:51:00;0.20;;;0.20;;
14056;SDS011;7103;54.300;10.180;2024-02-21T07:53:27;0.20;;;0.20;;
14056;SDS011;7103;54.300;10.180;2024-02-21T07:55:54;0.20;;;0.20;;
14056;SDS011;7103;54.300;10.180;2024-02-21T07:58:21;0.30;;;0.30;;
14056;SDS011;7103;54.300;10.180;2024-02-21T08:00:48;0.20;;;0.20;;
14056;SDS011;7103;54.300;10.180;2024-02-21T08:03:15;0.20;;;0.20;;
14056;SDS011;7103;54.300;10.180;2024-02-21T08:05:44;0.20;;;0.20;;
14056;SDS011;7103;54.300;10.180;2024-02-21T08:08:14;0.20;;;0.20;;
14056;SDS011;7103;54.300;10.180;2024-02-21T08:10:44;0.20;;;0.20;;
14056;SDS011;7103;54.300;10.180;2024-02-21T08:13:12;0.30;;;0.30;;
14056;SDS011;7103;54.300;10.180;2024-02-21T08:15:39;0.20;;;0.20;;
14056;SDS011;7103;54.300;10.180;2024-02-21T08:18:09;0.20;;;0.20;;
14056;SDS011;7103;54.300;10.180;2024-02-21T08:20:36;0.20;;;0.20;;
14056;SDS011;7103;54.300;10.180;2024-02-21T08:23:03;0.30;;;0.30;;
14056;SDS011;7103;54.300;10.180;2024-02-21T08:25:30;0.20;;;0.20;;
14056;SDS011;7103;54.300;10.180;2024-02-21T08:28:01;0.20;;;0.20;;
14056;SDS011;7103;54.300;10.180;2024-02-21T08:30:28;0.30;;;0.30;;
14056;SDS011;7103;54.300;10.180;2024-02-21T08:32:55;0.30;;;0.30;;
14056;SDS011;7103;54.300;10.180;2024-02-21T08:35:22;0.20;;;0.20;;
14056;SDS011;7103;54.300;10.180;2024-02-21T08:37:49;0.20;;;0.20;;
14056;SDS011;7103;54.300;10.180;2024-02-21T08:40:16;0.20;;;0.20;;
14056;SDS011;7103;54.300;10.180;2024-02-21T08:42:47;0.20;;;0.20;;
14056;SDS011;7103;54.300;10.180;2024-02-21T08:45:15;0.20;;;0.20;;
14056;SDS011;7103;54.300;10.180;2024-02-21T08:47:42;0.20;;;0.20;;
14056;SDS011;7103;54.300;10.180;2024-02-21T08:50:09;0.20;;;0.20;;
14056;SDS011;7103;54.300;10.180;2024-02-21T08:52:52;0.20;;;0.20;;
14056;SDS011;7103;54.300;10.180;2024-02-21T08:55:21;0.20;;;0.20;;
14056;SDS011;7103;54.300;10.180;2024-02-21T08:57:48;0.23;;;0.23;;
14056;SDS011;7103;54.300;10.180;2024-02-21T09:00:15;0.20;;;0.20;;
14056;SDS011;7103;54.300;10.180;2024-02-21T09:02:42;0.20;;;0.20;;
14056;SDS011;7103;54.300;10.180;2024-02-21T09:05:10;0.30;;;0.30;;
14056;SDS011;7103;54.300;10.180;2024-02-21T09:07:38;0.20;;;0.20;;
14056;SDS011;7103;54.300;10.180;2024-02-21T09:10:05;0.30;;;0.30;;
14056;SDS011;7103;54.300;10.180;2024-02-21T09:12:33;0.20;;;0.20;;
14056;SDS011;7103;54.300;10.180;2024-02-21T09:15:00;0.30;;;0.30;;
14056;SDS011;7103;54.300;10.180;2024-02-21T09:17:30;0.20;;;0.20;;
14056;SDS011;7103;54.300;10.180;2024-02-21T09:19:57;0.20;;;0.20;;
14056;SDS011;7103;54.300;10.180;2024-02-21T09:22:29;0.20;;;0.20;;
14056;SDS011;7103;54.300;10.180;2024-02-21T09:24:58;0.30;;;0.30;;
14056;SDS011;7103;54.300;10.180;2024-02-21T09:27:31;0.20;;;0.20;;
14056;SDS011;7103;54.300;10.180;2024-02-21T09:29:59;0.20;;;0.20;;
14056;SDS011;7103;54.300;10.180;2024-02-21T09:32:26;0.30;;;0.30;;
14056;SDS011;7103;54.300;10.180;2024-02-21T09:34:54;0.20;;;0.20;;
14056;SDS011;7103;54.300;10.180;2024-02-21T09:37:26;0.30;;;0.30;;
14056;SDS011;7103;54.300;10.180;2024-02-21T09:39:56;0.30;;;0.30;;
14056;SDS011;7103;54.300;10.180;2024-02-21T09:42:36;0.30;;;0.30;;
14056;SDS011;7103;54.300;10.180;2024-02-21T09:45:07;0.30;;;0.30;;
14056;SDS011;7103;54.300;10.180;2024-02-21T09:50:44;0.40;;;0.40;;
14056;SDS011;7103;54.300;10.180;2024-02-21T09:53:13;0.30;;;0.30;;
14056;SDS011;7103;54.300;10.180;2024-02-21T09:55:41;0.30;;;0.30;;
14056;SDS011;7103;54.300;10.180;2024-02-21T09:58:10;0.30;;;0.30;;
14056;SDS011;7103;54.300;10.180;2024-02-21T10:00:37;0.30;;;0.30;;
14056;SDS011;7103;54.300;10.180;2024-02-21T10:03:04;0.27;;;0.27;;
14056;SDS011;7103;54.300;10.180;2024-02-21T10:05:34;0.30;;;0.30;;
14056;SDS011;7103;54.300;10.180;2024-02-21T10:08:02;0.20;;;0.20;;
14056;SDS011;7103;54.300;10.180;2024-02-21T10:10:40;0.30;;;0.30;;
14056;SDS011;7103;54.300;10.180;2024-02-21T10:13:11;0.30;;;0.30;;
14056;SDS011;7103;54.300;10.180;2024-02-21T10:16:08;0.40;;;0.40;;
14056;SDS011;7103;54.300;10.180;2024-02-21T10:18:36;0.33;;;0.33;;
14056;SDS011;7103;54.300;10.180;2024-02-21T10:21:07;0.30;;;0.30;;
14056;SDS011;7103;54.300;10.180;2024-02-21T10:24:08;0.40;;;0.40;;
14056;SDS011;7103;54.300;10.180;2024-02-21T10:26:27;0.30;;;0.30;;
14056;SDS011;7103;54.300;10.180;2024-02-21T10:28:54;0.40;;;0.40;;
14056;SDS011;7103;54.300;10.180;2024-02-21T10:31:28;0.30;;;0.30;;
14056;SDS011;7103;54.300;10.180;2024-02-21T10:33:59;0.30;;;0.30;;
14056;SDS011;7103;54.300;10.180;2024-02-21T10:36:32;0.30;;;0.30;;
14056;SDS011;7103;54.300;10.180;2024-02-21T10:38:58;0.30;;;0.30;;
14056;SDS011;7103;54.300;10.180;2024-02-21T10:41:25;0.30;;;0.30;;
14056;SDS011;7103;54.300;10.180;2024-02-21T10:43:54;0.20;;;0.20;;
14056;SDS011;7103;54.300;10.180;2024-02-21T10:46:23;0.30;;;0.30;;
14056;SDS011;7103;54.300;10.180;2024-02-21T10:49:35;0.20;;;0.20;;
14056;SDS011;7103;54.300;10.180;2024-02-21T10:51:49;0.30;;;0.30;;
14056;SDS011;7103;54.300;10.180;2024-02-21T10:57:07;0.30;;;0.30;;
14056;SDS011;7103;54.300;10.180;2024-02-21T10:59:37;0.30;;;0.30;;
14056;SDS011;7103;54.300;10.180;2024-02-21T11:02:05;0.30;;;0.30;;
14056;SDS011;7103;54.300;10.180;2024-02-21T11:04:33;0.30;;;0.30;;
14056;SDS011;7103;54.300;10.180;2024-02-21T11:07:03;0.20;;;0.20;;
14056;SDS011;7103;54.300;10.180;2024-02-21T11:09:36;0.37;;;0.37;;
14056;SDS011;7103;54.300;10.180;2024-02-21T11:12:05;0.30;;;0.30;;
14056;SDS011;7103;54.300;10.180;2024-02-21T11:14:34;0.40;;;0.40;;
14056;SDS011;7103;54.300;10.180;2024-02-21T11:17:18;0.30;;;0.30;;
14056;SDS011;7103;54.300;10.180;2024-02-21T11:19:46;0.30;;;0.30;;
14056;SDS011;7103;54.300;10.180;2024-02-21T11:22:18;0.20;;;0.20;;
14056;SDS011;7103;54.300;10.180;2024-02-21T11:24:46;0.30;;;0.30;;
14056;SDS011;7103;54.300;10.180;2024-02-21T11:27:18;0.30;;;0.30;;
14056;SDS011;7103;54.300;10.180;2024-02-21T11:29:54;0.30;;;0.30;;
14056;SDS011;7103;54.300;10.180;2024-02-21T11:32:22;0.30;;;0.30;;
14056;SDS011;7103;54.300;10.180;2024-02-21T11:34:55;0.30;;;0.30;;
14056;SDS011;7103;54.300;10.180;2024-02-21T11:37:29;0.30;;;0.30;;
14056;SDS011;7103;54.300;10.180;2024-02-21T11:40:00;0.30;;;0.30;;
14056;SDS011;7103;54.300;10.180;2024-02-21T11:42:30;0.30;;;0.30;;
14056;SDS011;7103;54.300;10.180;2024-02-21T11:44:59;0.30;;;0.30;;
14056;SDS011;7103;54.300;10.180;2024-02-21T11:47:30;0.30;;;0.30;;
14056;SDS011;7103;54.300;10.180;2024-02-21T11:49:57;0.30;;;0.30;;
14056;SDS011;7103;54.300;10.180;2024-02-21T11:52:25;0.30;;;0.30;;
14056;SDS011;7103;54.300;10.180;2024-02-21T11:54:53;0.30;;;0.30;;
14056;SDS011;7103;54.300;10.180;2024-02-21T11:57:22;0.30;;;0.30;;
14056;SDS011;7103;54.300;10.180;2024-02-21T11:59:50;0.30;;;0.30;;
14056;SDS011;7103;54.300;10.180;2024-02-21T12:02:24;0.30;;;0.30;;
14056;SDS011;7103;54.300;10.180;2024-02-21T12:04:52;0.30;;;0.30;;
14056;SDS011;7103;54.300;10.180;2024-02-21T12:07:21;0.30;;;0.30;;
14056;SDS011;7103;54.300;10.180;2024-02-21T12:09:50;0.33;;;0.33;;
14056;SDS011;7103;54.300;10.180;2024-02-21T12:12:19;0.30;;;0.30;;
14056;SDS011;7103;54.300;10.180;2024-02-21T12:14:53;0.30;;;0.30;;
14056;SDS011;7103;54.300;10.180;2024-02-21T12:17:27;0.30;;;0.30;;
14056;SDS011;7103;54.300;10.180;2024-02-21T12:19:54;0.30;;;0.30;;
14056;SDS011;7103;54.300;10.180;2024-02-21T12:22:22;0.30;;;0.30;;
14056;SDS011;7103;54.300;10.180;2024-02-21T12:24:51;0.30;;;0.30;;
14056;SDS011;7103;54.300;10.180;2024-02-21T12:27:18;0.30;;;0.30;;
14056;SDS011;7103;54.300;10.180;2024-02-21T12:29:46;0.27;;;0.27;;
14056;SDS011;7103;54.300;10.180;2024-02-21T12:32:13;0.20;;;0.20;;
14056;SDS011;7103;54.300;10.180;2024-02-21T12:34:40;0.30;;;0.30;;
14056;SDS011;7103;54.300;10.180;2024-02-21T12:37:19;0.30;;;0.30;;
14056;SDS011;7103;54.300;10.180;2024-02-21T12:39:48;0.30;;;0.30;;
14056;SDS011;7103;54.300;10.180;2024-02-21T12:42:15;0.30;;;0.30;;
14056;SDS011;7103;54.300;10.180;2024-02-21T12:44:42;0.30;;;0.30;;
14056;SDS011;7103;54.300;10.180;2024-02-21T12:47:09;0.30;;;0.30;;
14056;SDS011;7103;54.300;10.180;2024-02-21T12:49:37;0.30;;;0.30;;
14056;SDS011;7103;54.300;10.180;2024-02-21T12:52:10;0.30;;;0.30;;
14056;SDS011;7103;54.300;10.180;2024-02-21T12:54:37;0.20;;;0.20;;
14056;SDS011;7103;54.300;10.180;2024-02-21T12:57:05;0.30;;;0.30;;
14056;SDS011;7103;54.300;10.180;2024-02-21T12:59:32;0.30;;;0.30;;
14056;SDS011;7103;54.300;10.180;2024-02-21T13:01:59;0.30;;;0.30;;
14056;SDS011;7103;54.300;10.180;2024-02-21T13:04:26;0.30;;;0.30;;
14056;SDS011;7103;54.300;10.180;2024-02-21T13:06:54;0.30;;;0.30;;
14056;SDS011;7103;54.300;10.180;2024-02-21T13:09:22;0.30;;;0.30;;
14056;SDS011;7103;54.300;10.180;2024-02-21T13:11:49;0.20;;;0.20;;
14056;SDS011;7103;54.300;10.180;2024-02-21T13:14:18;0.20;;;0.20;;
14056;SDS011;7103;54.300;10.180;2024-02-21T13:16:45;0.30;;;0.30;;
14056;SDS011;7103;54.300;10.180;2024-02-21T13:19:12;0.30;;;0.30;;
14056;SDS011;7103;54.300;10.180;2024-02-21T13:21:44;0.30;;;0.30;;
14056;SDS011;7103;54.300;10.180;2024-02-21T13:24:12;0.30;;;0.30;;
14056;SDS011;7103;54.300;10.180;2024-02-21T13:26:39;0.30;;;0.30;;
14056;SDS011;7103;54.300;10.180;2024-02-21T13:29:06;0.20;;;0.20;;
14056;SDS011;7103;54.300;10.180;2024-02-21T13:31:33;0.30;;;0.30;;
14056;SDS011;7103;54.300;10.180;2024-02-21T13:34:00;0.27;;;0.27;;
14056;SDS011;7103;54.300;10.180;2024-02-21T13:36:27;0.20;;;0.20;;
14056;SDS011;7103;54.300;10.180;2024-02-21T13:38:54;0.30;;;0.30;;
14056;SDS011;7103;54.300;10.180;2024-02-21T13:41:21;0.20;;;0.20;;
14056;SDS011;7103;54.300;10.180;2024-02-21T13:43:49;0.20;;;0.20;;
14056;SDS011;7103;54.300;10.180;2024-02-21T13:46:16;0.27;;;0.27;;
14056;SDS011;7103;54.300;10.180;2024-02-21T13:48:43;0.20;;;0.20;;
14056;SDS011;7103;54.300;10.180;2024-02-21T13:51:10;0.20;;;0.20;;
14056;SDS011;7103;54.300;10.180;2024-02-21T13:53:38;0.30;;;0.30;;
14056;SDS011;7103;54.300;10.180;2024-02-21T13:56:05;0.20;;;0.20;;
14056;SDS011;7103;54.300;10.180;2024-02-21T13:58:32;0.30;;;0.30;;
14056;SDS011;7103;54.300;10.180;2024-02-21T14:00:59;0.27;;;0.27;;
14056;SDS011;7103;54.300;10.180;2024-02-21T14:03:27;0.20;;;0.20;;
14056;SDS011;7103;54.300;10.180;2024-02-21T14:05:54;0.30;;;0.30;;
14056;SDS011;7103;54.300;10.180;2024-02-21T14:08:21;0.30;;;0.30;;
14056;SDS011;7103;54.300;10.180;2024-02-21T14:10:50;0.20;;;0.20;;
14056;SDS011;7103;54.300;10.180;2024-02-21T14:13:17;0.20;;;0.20;;
14056;SDS011;7103;54.300;10.180;2024-02-21T14:15:44;0.20;;;0.20;;
14056;SDS011;7103;54.300;10.180;2024-02-21T14:18:12;0.20;;;0.20;;
14056;SDS011;7103;54.300;10.180;2024-02-21T14:20:40;0.30;;;0.30;;
14056;SDS011;7103;54.300;10.180;2024-02-21T14:23:07;0.30;;;0.30;;
14056;SDS011;7103;54.300;10.180;2024-02-21T14:25:34;0.20;;;0.20;;
14056;SDS011;7103;54.300;10.180;2024-02-21T14:28:05;0.20;;;0.20;;
14056;SDS011;7103;54.300;10.180;2024-02-21T14:30:32;0.20;;;0.20;;
14056;SDS011;7103;54.300;10.180;2024-02-21T14:32:59;0.20;;;0.20;;
14056;SDS011;7103;54.300;10.180;2024-02-21T14:35:26;0.20;;;0.20;;
14056;SDS011;7103;54.300;10.180;2024-02-21T14:37:53;0.20;;;0.20;;
14056;SDS011;7103;54.300;10.180;2024-02-21T14:40:23;0.20;;;0.20;;
14056;SDS011;7103;54.300;10.180;2024-02-21T14:42:50;0.20;;;0.20;;
14056;SDS011;7103;54.300;10.180;2024-02-21T14:45:18;0.20;;;0.20;;
14056;SDS011;7103;54.300;10.180;2024-02-21T14:47:45;0.20;;;0.20;;
14056;SDS011;7103;54.300;10.180;2024-02-21T14:50:13;0.20;;;0.20;;
14056;SDS011;7103;54.300;10.180;2024-02-21T14:52:40;0.20;;;0.20;;
14056;SDS011;7103;54.300;10.180;2024-02-21T14:55:07;0.20;;;0.20;;
14056;SDS011;7103;54.300;10.180;2024-02-21T14:57:34;0.27;;;0.27;;
14056;SDS011;7103;54.300;10.180;2024-02-21T15:00:02;0.20;;;0.20;;